createdAt,value
2018-03-15T00:00:53.060Z,22.08
2018-03-15T00:03:26.206Z,25.10
2018-03-15T00:05:54.304Z,22.55
2018-03-15T00:08:21.855Z,21.25
2018-03-15T00:10:49.446Z,26.37
2018-03-15T00:13:16.937Z,23.00
2018-03-15T00:15:44.449Z,23.35
2018-03-15T00:18:11.983Z,27.48
2018-03-15T00:20:39.580Z,24.92
2018-03-15T00:23:07.070Z,22.15
2018-03-15T00:25:34.586Z,29.42
2018-03-15T00:28:02.130Z,25.40
2018-03-15T00:30:29.641Z,24.65
2018-03-15T00:32:57.212Z,24.50
2018-03-15T00:35:25.194Z,25.08
2018-03-15T00:37:52.676Z,24.35
2018-03-15T00:40:20.247Z,24.73
2018-03-15T00:42:47.841Z,25.67
2018-03-15T00:45:15.828Z,22.77
2018-03-15T00:47:43.311Z,22.33
2018-03-15T00:50:11.217Z,22.73
2018-03-15T00:52:38.796Z,24.08
2018-03-15T00:55:06.290Z,24.45
2018-03-15T00:57:33.777Z,26.27
2018-03-15T01:00:01.764Z,25.12
2018-03-15T01:02:29.253Z,28.08
2018-03-15T01:04:57.153Z,28.02
2018-03-15T01:07:25.124Z,25.42
2018-03-15T01:09:52.624Z,24.60
2018-03-15T01:12:20.509Z,25.45
2018-03-15T01:14:48.036Z,26.77
2018-03-15T01:17:15.520Z,23.98
2018-03-15T01:19:43.017Z,26.85
2018-03-15T01:22:10.537Z,21.50
2018-03-15T01:24:38.107Z,24.87
2018-03-15T01:27:05.608Z,22.55
2018-03-15T01:29:33.096Z,24.10
2018-03-15T01:32:01.076Z,23.27
2018-03-15T01:34:28.669Z,24.83
2018-03-15T01:36:56.173Z,22.37
2018-03-15T01:39:24.153Z,23.35
2018-03-15T01:41:52.056Z,26.35
2018-03-15T01:44:19.928Z,22.60
2018-03-15T01:46:47.517Z,26.83
2018-03-15T01:49:15.003Z,22.17
2018-03-15T01:51:42.576Z,24.12
2018-03-15T01:54:10.208Z,24.08
2018-03-15T01:56:37.749Z,22.98
2018-03-15T01:59:05.336Z,24.55
2018-03-15T02:01:32.838Z,22.95
2018-03-15T02:04:00.726Z,22.83
2018-03-15T02:06:28.629Z,23.90
2018-03-15T02:08:56.517Z,22.90
2018-03-15T02:11:24.413Z,23.65
2018-03-15T02:13:52.379Z,26.48
2018-03-15T02:16:19.880Z,27.42
2018-03-15T02:18:47.860Z,19.90
2018-03-15T02:21:15.360Z,22.30
2018-03-15T02:23:43.252Z,21.58
2018-03-15T02:26:11.233Z,24.05
2018-03-15T02:28:38.803Z,23.30
2018-03-15T02:31:06.301Z,24.58
2018-03-15T02:33:33.799Z,21.67
2018-03-15T02:36:01.763Z,23.00
2018-03-15T02:38:29.255Z,22.98
2018-03-15T02:40:56.840Z,21.70
2018-03-15T02:43:24.431Z,21.92
2018-03-15T02:45:52.337Z,22.15
2018-03-15T02:48:20.230Z,20.05
2018-03-15T02:50:48.191Z,23.92
2018-03-15T02:53:15.697Z,20.70
2018-03-15T02:55:43.572Z,20.67
2018-03-15T02:58:11.068Z,22.02
2018-03-15T03:00:38.949Z,17.40
2018-03-15T03:03:06.466Z,21.00
2018-03-15T03:05:33.960Z,18.48
2018-03-15T03:08:01.497Z,23.60
2018-03-15T03:10:29.080Z,22.58
2018-03-15T03:12:56.575Z,21.48
2018-03-15T03:15:24.065Z,23.90
2018-03-15T03:17:51.974Z,16.85
2018-03-15T03:20:19.457Z,20.08
2018-03-15T03:22:47.420Z,25.15
2018-03-15T03:25:14.909Z,22.50
2018-03-15T03:27:42.489Z,19.95
2018-03-15T03:30:10.073Z,20.52
2018-03-15T03:32:37.582Z,19.62
2018-03-15T03:35:05.484Z,23.27
2018-03-15T03:37:32.998Z,20.12
2018-03-15T03:40:00.476Z,21.87
2018-03-15T03:42:27.977Z,22.48
2018-03-15T03:44:55.469Z,23.00
2018-03-15T03:47:23.064Z,20.92
2018-03-15T03:49:50.549Z,22.50
2018-03-15T03:52:18.131Z,19.65
2018-03-15T03:54:45.616Z,17.83
2018-03-15T03:57:13.191Z,19.67
2018-03-15T03:59:40.775Z,26.85
2018-03-15T04:02:08.377Z,17.67
2018-03-15T04:04:35.859Z,20.55
2018-03-15T04:07:03.369Z,22.27
2018-03-15T04:09:30.851Z,21.95
2018-03-15T04:11:58.748Z,24.35
2018-03-15T04:14:26.296Z,22.00
2018-03-15T04:16:53.888Z,20.15
2018-03-15T04:19:21.401Z,22.30
2018-03-15T04:21:48.958Z,18.87
2018-03-15T04:24:16.862Z,16.37
2018-03-15T04:26:44.833Z,19.25
2018-03-15T04:29:12.327Z,21.17
2018-03-15T04:31:39.905Z,21.23
2018-03-15T04:34:07.483Z,17.60
2018-03-15T04:36:34.964Z,19.52
2018-03-15T04:39:02.547Z,20.85
2018-03-15T04:41:30.146Z,21.15
2018-03-15T04:43:57.648Z,26.75
2018-03-15T04:46:25.617Z,18.77
2018-03-15T04:48:53.117Z,14.77
2018-03-15T04:51:20.998Z,20.70
2018-03-15T04:53:48.984Z,24.15
2018-03-15T04:56:16.563Z,25.48
2018-03-15T04:58:44.055Z,20.62
2018-03-15T05:01:11.636Z,22.60
2018-03-15T05:03:39.237Z,18.77
2018-03-15T05:06:07.226Z,18.58
2018-03-15T05:08:34.738Z,16.98
2018-03-15T05:11:02.222Z,19.12
2018-03-15T05:13:29.723Z,23.08
2018-03-15T05:15:57.217Z,19.42
2018-03-15T05:18:24.733Z,22.30
2018-03-15T05:20:52.211Z,17.50
2018-03-15T05:23:19.712Z,15.98
2018-03-15T05:25:47.597Z,20.00
2018-03-15T05:28:15.106Z,19.60
2018-03-15T05:30:42.651Z,21.42
2018-03-15T05:33:10.235Z,18.90
2018-03-15T05:35:37.726Z,19.92
2018-03-15T05:38:05.230Z,16.85
2018-03-15T05:40:33.137Z,14.68
2018-03-15T05:43:00.630Z,17.85
2018-03-15T05:45:28.138Z,17.52
2018-03-15T05:47:55.682Z,21.65
2018-03-15T05:50:23.575Z,24.40
2018-03-15T05:52:51.545Z,19.27
2018-03-15T05:55:19.045Z,18.55
2018-03-15T05:57:46.923Z,18.98
2018-03-15T06:00:14.432Z,18.58
2018-03-15T06:02:42.719Z,18.95
2018-03-15T06:05:10.661Z,16.87
2018-03-15T06:07:38.176Z,19.50
2018-03-15T06:10:05.676Z,21.05
2018-03-15T06:12:33.556Z,18.62
2018-03-15T06:15:01.065Z,15.85
2018-03-15T06:17:28.944Z,20.17
2018-03-15T06:19:56.912Z,14.87
2018-03-15T06:22:24.388Z,17.58
2018-03-15T06:24:51.989Z,16.67
2018-03-15T06:27:19.573Z,19.65
2018-03-15T06:29:47.165Z,18.45
2018-03-15T06:32:14.738Z,18.00
2018-03-15T06:34:42.324Z,18.65
2018-03-15T06:37:09.808Z,18.83
2018-03-15T06:39:37.309Z,17.00
2018-03-15T06:42:05.287Z,16.90
2018-03-15T06:44:32.869Z,14.95
2018-03-15T06:47:00.352Z,18.50
2018-03-15T06:49:27.858Z,18.75
2018-03-15T06:51:55.736Z,18.58
2018-03-15T06:54:23.317Z,20.52
2018-03-15T06:56:50.812Z,16.27
2018-03-15T06:59:18.316Z,21.48
2018-03-15T07:01:45.864Z,18.65
2018-03-15T07:04:13.351Z,16.02
2018-03-15T07:06:40.937Z,15.15
2018-03-15T07:09:09.515Z,16.83
2018-03-15T07:11:37.025Z,19.00
2018-03-15T07:14:04.603Z,20.30
2018-03-15T07:16:32.195Z,18.25
2018-03-15T07:19:00.181Z,19.90
2018-03-15T07:21:27.685Z,19.02
2018-03-15T07:23:55.655Z,18.90
2018-03-15T07:26:23.249Z,18.05
2018-03-15T07:28:50.736Z,18.48
2018-03-15T07:31:18.308Z,16.85
2018-03-15T07:33:45.906Z,18.98
2018-03-15T07:36:13.408Z,16.67
2018-03-15T07:38:41.369Z,20.55
2018-03-15T07:41:08.955Z,18.92
2018-03-15T07:43:36.444Z,18.02
2018-03-15T07:46:03.944Z,20.08
2018-03-15T07:48:31.428Z,19.05
2018-03-15T07:50:59.316Z,17.83
2018-03-15T07:53:27.201Z,17.58
2018-03-15T07:55:54.777Z,19.98
2018-03-15T07:58:22.361Z,20.48
2018-03-15T08:00:49.949Z,14.63
2018-03-15T08:03:17.433Z,17.58
2018-03-15T08:05:44.948Z,18.30
2018-03-15T08:08:12.575Z,17.17
2018-03-15T08:10:40.185Z,17.80
2018-03-15T08:13:07.673Z,14.77
2018-03-15T08:15:35.177Z,14.50
2018-03-15T08:18:03.068Z,18.65
2018-03-15T08:20:31.041Z,17.17
2018-03-15T08:22:58.525Z,16.80
2018-03-15T08:25:26.026Z,17.75
2018-03-15T08:27:53.913Z,17.52
2018-03-15T08:30:21.796Z,15.43
2018-03-15T08:32:49.781Z,13.75
2018-03-15T08:35:17.266Z,16.30
2018-03-15T08:37:44.771Z,14.07
2018-03-15T08:40:12.337Z,15.13
2018-03-15T08:42:40.240Z,13.80
2018-03-15T08:45:07.751Z,11.63
2018-03-15T08:47:35.257Z,15.50
2018-03-15T08:50:02.740Z,13.35
2018-03-15T08:52:30.245Z,13.10
2018-03-15T08:54:57.729Z,15.93
2018-03-15T08:57:25.245Z,13.02
2018-03-15T08:59:52.734Z,13.50
2018-03-15T09:02:20.232Z,12.88
2018-03-15T09:04:47.813Z,16.73
2018-03-15T09:07:15.336Z,11.93
2018-03-15T09:09:42.820Z,13.38
2018-03-15T09:12:10.356Z,13.20
2018-03-15T09:14:37.840Z,13.20
2018-03-15T09:17:05.395Z,13.10
2018-03-15T09:19:32.865Z,13.13
2018-03-15T09:22:00.387Z,13.25
2018-03-15T09:24:27.863Z,11.32
2018-03-15T09:26:55.444Z,14.55
2018-03-15T09:29:23.317Z,11.77
2018-03-15T09:31:51.325Z,12.07
2018-03-15T09:34:18.831Z,12.02
2018-03-15T09:36:46.352Z,9.07
2018-03-15T09:39:13.870Z,12.57
2018-03-15T09:41:41.397Z,12.35
2018-03-15T09:44:08.889Z,12.32
2018-03-15T09:46:36.500Z,10.50
2018-03-15T09:49:04.404Z,11.75
2018-03-15T09:51:32.394Z,13.25
2018-03-15T09:54:00.295Z,12.98
2018-03-15T09:56:27.837Z,21.12
2018-03-15T09:58:55.353Z,15.13
2018-03-15T10:01:23.355Z,11.38
2018-03-15T10:03:50.880Z,11.63
2018-03-15T10:06:18.397Z,17.55
2018-03-15T10:08:45.938Z,10.70
2018-03-15T10:11:13.489Z,10.18
2018-03-15T10:13:41.070Z,12.32
2018-03-15T10:16:08.982Z,9.33
2018-03-15T10:18:36.560Z,11.02
2018-03-15T10:21:04.120Z,11.45
2018-03-15T10:23:31.712Z,9.37
2018-03-15T10:25:59.625Z,13.13
2018-03-15T10:28:27.200Z,10.17
2018-03-15T10:30:54.821Z,11.25
2018-03-15T10:33:27.941Z,9.17
2018-03-15T10:35:55.454Z,10.60
2018-03-15T10:38:22.976Z,9.60
2018-03-15T10:40:50.540Z,8.47
2018-03-15T10:43:18.464Z,10.47
2018-03-15T10:45:45.974Z,8.00
2018-03-15T10:48:13.518Z,12.30
2018-03-15T10:50:41.027Z,8.00
2018-03-15T10:53:08.548Z,9.27
2018-03-15T10:55:36.048Z,10.53
2018-03-15T10:58:03.965Z,6.80
2018-03-15T11:00:37.023Z,9.83
2018-03-15T11:03:10.359Z,10.20
2018-03-15T11:05:43.669Z,10.67
2018-03-15T11:08:16.829Z,8.80
2018-03-15T11:10:44.429Z,7.90
2018-03-15T11:13:11.958Z,7.47
2018-03-15T11:15:39.465Z,8.33
2018-03-15T11:18:07.390Z,7.73
2018-03-15T11:20:34.941Z,6.97
2018-03-15T11:23:02.533Z,8.83
2018-03-15T11:25:30.116Z,7.60
2018-03-15T11:27:58.033Z,9.67
2018-03-15T11:30:25.541Z,7.93
2018-03-15T11:32:53.083Z,7.27
2018-03-15T11:35:21.007Z,8.37
2018-03-15T11:37:48.508Z,7.83
2018-03-15T11:40:16.038Z,7.87
2018-03-15T11:42:43.945Z,8.60
2018-03-15T11:45:11.948Z,8.53
2018-03-15T11:47:39.639Z,7.70
2018-03-15T11:50:07.208Z,7.10
2018-03-15T11:52:34.777Z,6.67
2018-03-15T11:55:02.691Z,9.17
2018-03-15T11:57:30.192Z,11.43
2018-03-15T11:59:57.705Z,8.60
2018-03-15T12:02:25.221Z,9.30
2018-03-15T12:04:53.224Z,8.30
2018-03-15T12:07:21.216Z,7.73
2018-03-15T12:09:49.136Z,9.97
2018-03-15T12:12:16.698Z,9.60
2018-03-15T12:14:44.704Z,9.50
2018-03-15T12:17:12.439Z,8.90
2018-03-15T12:19:39.936Z,6.43
2018-03-15T12:22:07.445Z,9.23
2018-03-15T12:24:34.950Z,6.87
2018-03-15T12:27:02.920Z,8.20
2018-03-15T12:29:30.499Z,8.20
2018-03-15T12:31:57.991Z,8.97
2018-03-15T12:34:25.501Z,6.20
2018-03-15T12:36:53.077Z,6.83
2018-03-15T12:39:21.043Z,6.83
2018-03-15T12:41:48.637Z,7.87
2018-03-15T12:44:16.225Z,8.70
2018-03-15T12:46:43.715Z,6.60
2018-03-15T12:49:11.621Z,5.77
2018-03-15T12:51:39.596Z,5.60
2018-03-15T12:54:07.183Z,7.80
2018-03-15T12:56:34.769Z,7.10
2018-03-15T12:59:02.272Z,6.67
2018-03-15T13:01:30.182Z,7.30
2018-03-15T13:03:57.681Z,7.23
2018-03-15T13:06:25.308Z,9.17
2018-03-15T13:08:52.805Z,7.53
2018-03-15T13:11:20.790Z,8.20
2018-03-15T13:13:48.369Z,6.93
2018-03-15T13:16:15.889Z,13.37
2018-03-15T13:18:43.376Z,6.90
2018-03-15T13:21:10.876Z,6.83
2018-03-15T13:23:38.363Z,8.13
2018-03-15T13:26:05.883Z,6.60
2018-03-15T13:28:33.372Z,6.67
2018-03-15T13:31:00.960Z,7.90
2018-03-15T13:33:28.537Z,7.10
2018-03-15T13:35:57.068Z,7.93
2018-03-15T13:38:25.042Z,5.90
2018-03-15T13:40:52.540Z,5.90
2018-03-15T13:43:20.425Z,10.23
2018-03-15T13:45:47.924Z,7.20
2018-03-15T13:48:15.888Z,7.87
2018-03-15T13:50:43.392Z,7.70
2018-03-15T13:53:11.383Z,6.70
2018-03-15T13:55:39.279Z,7.67
2018-03-15T13:58:07.261Z,6.73
2018-03-15T14:00:34.847Z,6.00
2018-03-15T14:03:02.332Z,7.13
2018-03-15T14:05:29.912Z,5.03
2018-03-15T14:07:57.396Z,5.57
2018-03-15T14:10:24.897Z,5.00
2018-03-15T14:12:52.785Z,5.17
2018-03-15T14:15:20.683Z,6.40
2018-03-15T14:17:48.565Z,5.83
2018-03-15T14:20:16.468Z,4.60
2018-03-15T14:22:43.969Z,4.37
2018-03-15T14:25:11.508Z,5.77
2018-03-15T14:27:39.105Z,6.10
2018-03-15T14:30:07.016Z,5.83
2018-03-15T14:32:34.577Z,6.23
2018-03-15T14:35:02.137Z,4.70
2018-03-15T14:37:29.602Z,5.50
2018-03-15T14:39:57.089Z,5.00
2018-03-15T14:42:24.597Z,6.17
2018-03-15T14:44:52.194Z,9.90
2018-03-15T14:47:19.709Z,6.80
2018-03-15T14:49:47.196Z,4.60
2018-03-15T14:52:14.739Z,5.83
2018-03-15T14:54:42.633Z,7.00
2018-03-15T14:57:10.243Z,5.20
2018-03-15T14:59:37.804Z,6.87
2018-03-15T15:02:05.413Z,7.93
2018-03-15T15:04:32.896Z,7.77
2018-03-15T15:07:00.412Z,5.18
2018-03-15T15:09:27.901Z,8.50
2018-03-15T15:11:55.402Z,6.97
2018-03-15T15:14:22.876Z,5.93
2018-03-15T15:16:50.380Z,5.60
2018-03-15T15:19:17.869Z,5.97
2018-03-15T15:21:45.377Z,5.40
2018-03-15T15:24:13.251Z,5.13
2018-03-15T15:26:41.147Z,7.43
2018-03-15T15:29:09.031Z,7.33
2018-03-15T15:31:36.932Z,6.00
2018-03-15T15:34:04.816Z,5.40
2018-03-15T15:36:32.721Z,6.05
2018-03-15T15:39:00.595Z,6.83
2018-03-15T15:41:28.188Z,6.87
2018-03-15T15:43:55.869Z,5.50
2018-03-15T15:46:23.457Z,5.47
2018-03-15T15:48:51.035Z,8.20
2018-03-15T15:51:18.548Z,4.83
2018-03-15T15:53:46.041Z,4.97
2018-03-15T15:56:13.537Z,5.80
2018-03-15T15:58:41.044Z,5.53
2018-03-15T16:01:08.534Z,5.53
2018-03-15T16:03:36.047Z,4.60
2018-03-15T16:06:03.559Z,5.43
2018-03-15T16:08:31.068Z,5.53
2018-03-15T16:10:58.591Z,6.20
2018-03-15T16:13:26.109Z,4.10
2018-03-15T16:15:53.674Z,9.50
2018-03-15T16:18:21.658Z,5.67
2018-03-15T16:20:49.556Z,5.45
2018-03-15T16:23:17.585Z,6.90
2018-03-15T16:25:45.124Z,5.53
2018-03-15T16:28:12.703Z,4.97
2018-03-15T16:30:40.200Z,7.12
2018-03-15T16:33:08.193Z,6.00
2018-03-15T16:35:36.071Z,5.60
2018-03-15T16:38:03.581Z,6.55
2018-03-15T16:40:31.112Z,4.93
2018-03-15T16:42:58.633Z,17.52
2018-03-15T16:45:26.532Z,9.90
2018-03-15T16:47:54.448Z,6.78
2018-03-15T16:50:21.944Z,6.97
2018-03-15T16:52:49.482Z,7.68
2018-03-15T16:55:17.463Z,6.55
2018-03-15T16:57:44.968Z,5.83
2018-03-15T17:00:12.912Z,5.95
2018-03-15T17:02:40.440Z,6.82
2018-03-15T17:05:08.425Z,5.05
2018-03-15T17:07:35.933Z,8.23
2018-03-15T17:10:03.420Z,7.43
2018-03-15T17:12:30.928Z,6.77
2018-03-15T17:14:58.466Z,5.70
2018-03-15T17:17:25.977Z,6.97
2018-03-15T17:19:53.558Z,6.33
2018-03-15T17:22:21.056Z,6.90
2018-03-15T17:24:48.631Z,8.25
2018-03-15T17:27:16.095Z,6.57
2018-03-15T17:29:44.005Z,7.50
2018-03-15T17:32:11.578Z,8.07
2018-03-15T17:34:39.149Z,6.95
2018-03-15T17:37:07.037Z,7.57
2018-03-15T17:39:34.939Z,6.82
2018-03-15T17:42:02.911Z,5.87
2018-03-15T17:44:30.412Z,8.23
2018-03-15T17:46:58.306Z,6.37
2018-03-15T17:49:26.279Z,8.38
2018-03-15T17:51:53.867Z,6.50
2018-03-15T17:54:21.389Z,7.57
2018-03-15T17:56:48.945Z,5.12
2018-03-15T17:59:16.855Z,8.20
2018-03-15T18:01:44.353Z,18.73
2018-03-15T18:04:12.029Z,6.82
2018-03-15T18:06:39.584Z,12.23
2018-03-15T18:09:07.088Z,9.73
2018-03-15T18:11:34.971Z,8.50
2018-03-15T18:14:02.880Z,6.40
2018-03-15T18:16:30.412Z,10.10
2018-03-15T18:18:58.037Z,7.80
2018-03-15T18:21:25.925Z,6.90
2018-03-15T18:23:53.829Z,9.13
2018-03-15T18:26:21.716Z,4.47
2018-03-15T18:28:49.628Z,6.25
2018-03-15T18:31:17.132Z,7.12
2018-03-15T18:33:44.631Z,6.00
2018-03-15T18:36:12.139Z,9.25
2018-03-15T18:38:39.740Z,7.93
2018-03-15T18:41:07.728Z,8.95
2018-03-15T18:43:35.304Z,9.20
2018-03-15T18:46:02.796Z,5.87
2018-03-15T18:48:30.319Z,7.40
2018-03-15T18:50:57.805Z,8.05
2018-03-15T18:53:25.345Z,10.13
2018-03-15T18:55:52.930Z,8.13
2018-03-15T18:58:20.460Z,10.77
2018-03-15T19:00:47.956Z,9.27
2018-03-15T19:03:15.443Z,12.15
2018-03-15T19:05:42.957Z,8.60
2018-03-15T19:08:10.594Z,10.90
2018-03-15T19:10:38.129Z,11.40
2018-03-15T19:13:05.781Z,11.55
2018-03-15T19:15:33.629Z,15.68
2018-03-15T19:18:01.522Z,10.95
2018-03-15T19:20:29.421Z,12.00
2018-03-15T19:22:56.912Z,15.80
2018-03-15T19:25:24.408Z,13.85
2018-03-15T19:27:51.908Z,14.02
2018-03-15T19:30:19.407Z,17.77
2018-03-15T19:32:46.900Z,16.80
2018-03-15T19:35:14.497Z,15.27
2018-03-15T19:37:42.375Z,14.07
2018-03-15T19:40:09.921Z,13.75
2018-03-15T19:42:37.407Z,16.75
2018-03-15T19:45:04.910Z,14.00
2018-03-15T19:47:32.415Z,13.25
2018-03-15T19:49:59.932Z,15.05
2018-03-15T19:52:27.491Z,13.85
2018-03-15T19:54:55.096Z,13.73
2018-03-15T19:57:22.977Z,14.50
2018-03-15T19:59:50.937Z,13.57
2018-03-15T20:02:18.429Z,13.65
2018-03-15T20:04:45.941Z,14.75
2018-03-15T20:07:13.937Z,15.57
2018-03-15T20:09:41.837Z,16.37
2018-03-15T20:12:09.716Z,17.95
2018-03-15T20:14:37.611Z,12.35
2018-03-15T20:17:05.503Z,17.30
2018-03-15T20:19:33.486Z,18.48
2018-03-15T20:22:01.107Z,14.25
2018-03-15T20:24:33.240Z,15.40
2018-03-15T20:27:00.926Z,14.77
2018-03-15T20:29:28.387Z,13.50
2018-03-15T20:31:55.893Z,14.73
2018-03-15T20:34:23.401Z,15.35
2018-03-15T20:36:50.945Z,14.95
2018-03-15T20:39:24.220Z,19.00
2018-03-15T20:41:52.196Z,17.42
2018-03-15T20:44:20.465Z,17.00
2018-03-15T20:46:53.801Z,17.73
2018-03-15T20:49:21.284Z,19.25
2018-03-15T20:51:48.893Z,18.83
2018-03-15T20:54:16.381Z,17.05
2018-03-15T20:56:44.432Z,19.42
2018-03-15T20:59:11.925Z,17.40
2018-03-15T21:01:39.423Z,18.55
2018-03-15T21:04:07.025Z,19.25
2018-03-15T21:06:34.610Z,19.55
2018-03-15T21:09:02.160Z,17.05
2018-03-15T21:11:29.655Z,10.38
2018-03-15T21:13:57.180Z,19.00
2018-03-15T21:16:25.143Z,16.08
2018-03-15T21:18:52.732Z,15.60
2018-03-15T21:21:20.320Z,19.08
2018-03-15T21:23:47.917Z,17.60
2018-03-15T21:26:15.490Z,18.65
2018-03-15T21:28:43.076Z,18.65
2018-03-15T21:31:10.656Z,21.55
2018-03-15T21:33:38.271Z,19.05
2018-03-15T21:36:06.159Z,19.27
2018-03-15T21:38:34.120Z,17.48
2018-03-15T21:41:01.620Z,20.83
2018-03-15T21:43:29.285Z,19.30
2018-03-15T21:45:56.797Z,19.87
2018-03-15T21:48:24.760Z,20.25
2018-03-15T21:50:52.265Z,20.00
2018-03-15T21:53:19.988Z,18.65
2018-03-15T21:55:47.531Z,20.42
2018-03-15T21:58:15.385Z,25.40
2018-03-15T22:00:42.882Z,17.45
2018-03-15T22:03:10.489Z,20.92
2018-03-15T22:05:37.977Z,19.30
2018-03-15T22:08:05.729Z,18.30
2018-03-15T22:10:33.229Z,20.67
2018-03-15T22:13:00.740Z,20.42
2018-03-15T22:15:28.628Z,21.35
2018-03-15T22:17:56.213Z,23.23
2018-03-15T22:20:23.691Z,22.77
2018-03-15T22:22:51.277Z,18.02
2018-03-15T22:25:18.764Z,19.25
2018-03-15T22:27:46.269Z,20.05
2018-03-15T22:30:14.167Z,20.25
2018-03-15T22:32:42.146Z,21.30
2018-03-15T22:35:10.024Z,21.37
2018-03-15T22:37:37.537Z,21.30
2018-03-15T22:40:05.034Z,21.48
2018-03-15T22:42:32.572Z,18.80
2018-03-15T22:45:00.065Z,22.60
2018-03-15T22:47:27.573Z,20.75
2018-03-15T22:49:55.448Z,21.17
2018-03-15T22:52:23.021Z,18.80
2018-03-15T22:54:50.505Z,21.20
2018-03-15T22:57:18.093Z,16.85
2018-03-15T22:59:45.682Z,17.92
2018-03-15T23:02:13.193Z,21.35
2018-03-15T23:04:41.531Z,20.60
2018-03-15T23:07:09.037Z,19.62
2018-03-15T23:09:36.936Z,20.15
2018-03-15T23:12:04.525Z,18.30
2018-03-15T23:14:32.021Z,21.00
2018-03-15T23:17:00.019Z,21.15
2018-03-15T23:19:27.763Z,22.25
2018-03-15T23:21:55.268Z,25.10
2018-03-15T23:24:22.761Z,24.05
2018-03-15T23:26:50.259Z,21.62
2018-03-15T23:29:18.237Z,23.92
2018-03-15T23:31:46.232Z,24.63
2018-03-15T23:34:13.745Z,23.45
2018-03-15T23:36:41.238Z,21.77
2018-03-15T23:39:08.748Z,26.15
2018-03-15T23:41:36.267Z,22.92
2018-03-15T23:44:04.247Z,26.08
2018-03-15T23:46:31.735Z,26.42
2018-03-15T23:48:59.257Z,31.45
2018-03-15T23:51:26.746Z,25.12
2018-03-15T23:53:54.256Z,27.13
2018-03-15T23:56:21.735Z,27.20
2018-03-15T23:58:49.236Z,27.65
